Aeroporto :
LOGIN :

Iscrizione | Disclaimer

   EN    FR    IT 

 










Sommario :    VFR   VFR Marginale   IFR   IFR Intensivo   IFR Molto Intensivo
Visibilità : 
Base nubi : 
>= 8 km
>= 3000ft
5 / 8 km
1000 / 3000 ft
1500m / 5 km
500 / 1000 ft
800 / 1500m
200 / 500 ft
< 800m
< 200 ft
Simboli :   Temporali  Nebbia  Neve Forte  Precipitazioni Forti  Vento > 20 kt
SIGMETs :   Varie  Temporali  Ghiacco  Turbolenza  Onda orograficha  Ceneri Vulcaniche






- Altitudine del aeroporto : 353 ft
- Codice IATA : ZAG


LDZA - Zagreb Pleso

ULTIMO METAR :
  • 180030Z 09003KT 060V140 CAVOK 11/10 Q1007 NOSIG

METARs OBSOLETI :
  • 180000Z VRB01KT CAVOK 11/10 Q1007 NOSIG
  • 172330Z 04003KT 350V080 9999 -RA NSC 11/10 Q1007 NOSIG
  • 172300Z 09003KT 9999 -RA NSC 11/10 Q1008 NOSIG
  • 172230Z 09005KT 050V130 9999 -RA NSC 11/10 Q1007 NOSIG
  • 172200Z 10005KT 080V140 9999 -RA NSC 11/10 Q1007 NOSIG

TAF TAF LDZA
Valido dal 18 a 00 ore il 19 a 00 ore UTC


172325Z 1800/1900 23004KT 9999 SCT035 TX14/1813Z TN05/1823Z
PROB30
TEMPO 1800/1803 RA BKN010
PROB30
TEMPO 1805/1808 1000 BCFG
PROB30
TEMPO 1810/1814 23008KT
BECMG 1817/1819 3000 BR
PROB40 1820/1900 0200 FG VV001
ATIS : +385 1 6-259-214



MetMap, La meteo Aeronautica in un colpo d'occhio ! - Copyright ORBIFLY Dicembre 2007 - Disclaimer

ORBIFLY MET'MAP TEAM :

Programmazione e sviluppo : Alexandra Zaïnal
Concezione e sviluppo : Baudouin d'Aumeries
Co-Programmazione e sviluppo : Marc-Olivier Méhu
Supporto tecnico e logistico : Manuel Goepfert
Aiuto per la traduzione : Arnaldo La Scala

Contatto : metmap@orbifly.com




FONTI E CREDITI :

   NOAA